Gaza, Israel

15:43 IST 3. Prosinec 2016 (GMT +0200)
Agicultural Area | | Change Station

Výška 328 ft 31.63 °N, 34.67 °E | Updated 4 minutes ago

Partly Cloudy
Částečně oblačno
66.6 °F
Pocit jako 66.6 °F
S
2.0
Vítr proměnlivý Vítr od ZJZ
Gusts 2.5 mil/h

Dnes
Vysoké -- | Nízké -- °F
--% Možnost srážek
Včera
Vysoké -- | Nízké -- °F
Precip. -- inčů
Tlak 30.24 inčů
Viditelnost 6.2 mílí
Zataženo Nemnoho 5000 ft
Rosný bod 32 °F
Vlhkost 28%
Dešťové srážky 0.00 inčů
Sněhová pokrývka Není k dispozici
6:25 AM 4:37 PM
Dorůstající srpek, 15% visible
METAR LLBG 031320Z VRB02KT 9999 FEW050 19/10 Q1024 NOSIG
Tlak 30.24 inčů
Viditelnost 6.2 mílí
Zataženo Nemnoho 5000 ft
Rosný bod 32 °F
Vlhkost 28%
Dešťové srážky 0.00 inčů
Sněhová pokrývka Není k dispozici
6:25 AM 4:37 PM
Dorůstající srpek, 15% visible
METAR LLBG 031320Z VRB02KT 9999 FEW050 19/10 Q1024 NOSIG

10-Day Weather Forecast

No radar image for this location.
×

Almanac

Astronomie

Dec. 03, 2016 Východ Západ
Skutečný čas
Občanský soumrak
Námořní soumrak
Astronomický soumrak
Měsíc
Délka denního světla
Délka dne
Tomorrow will be .
, % of the Moon is Illuminated

Dnešní extrémy

Nejvyšší hodnoty ve státě Nejnižší hodnoty ve státě

Community

WunderPhotos

Upload Photos

1,955,446 snímků staženo!

WunderBlog® & News

Nearby

Kvalita ovzduší

  Kvalita ovzduší Index kvality ovzduší Polutant
Not available.

Výška sněhu

Station Hloubka Nadmořská výška

Seizmická činnost

Město Distance Mag. Čas & datum
Minimální zobrazený rozsah je 2.5.

Pobřežní teplota vody

Lokalita Teplota

Stations

Poblíž povětrnostní stanice

Lokace stanice Tepl. Ochlazování větrem Rosný bod Vlhkost Vítr Precip. Výška Čas hlášení Typ